sensor_id;sensor_type;location;lat;lon;timestamp;P1;durP1;ratioP1;P2;durP2;ratioP2
357;SDS011;167;47.558;7.602;2023-07-02T00:00:32;1.90;;;1.80;;
357;SDS011;167;47.558;7.602;2023-07-02T00:03:00;1.77;;;1.73;;
357;SDS011;167;47.558;7.602;2023-07-02T00:05:26;2.20;;;2.10;;
357;SDS011;167;47.558;7.602;2023-07-02T00:07:52;2.63;;;2.53;;
357;SDS011;167;47.558;7.602;2023-07-02T00:10:18;2.87;;;2.67;;
357;SDS011;167;47.558;7.602;2023-07-02T00:12:44;2.30;;;2.20;;
357;SDS011;167;47.558;7.602;2023-07-02T00:15:10;2.70;;;2.60;;
357;SDS011;167;47.558;7.602;2023-07-02T00:17:36;2.90;;;2.80;;
357;SDS011;167;47.558;7.602;2023-07-02T00:20:05;3.03;;;2.47;;
357;SDS011;167;47.558;7.602;2023-07-02T00:22:31;3.00;;;2.80;;
357;SDS011;167;47.558;7.602;2023-07-02T00:25:01;3.20;;;2.67;;
357;SDS011;167;47.558;7.602;2023-07-02T00:27:27;2.97;;;2.80;;
357;SDS011;167;47.558;7.602;2023-07-02T00:29:53;4.07;;;2.93;;
357;SDS011;167;47.558;7.602;2023-07-02T00:32:18;3.77;;;2.43;;
357;SDS011;167;47.558;7.602;2023-07-02T00:34:45;2.67;;;2.47;;
357;SDS011;167;47.558;7.602;2023-07-02T00:37:11;3.17;;;2.97;;
357;SDS011;167;47.558;7.602;2023-07-02T00:39:37;2.57;;;2.47;;
357;SDS011;167;47.558;7.602;2023-07-02T00:42:03;2.63;;;2.53;;
357;SDS011;167;47.558;7.602;2023-07-02T00:44:29;3.33;;;3.13;;
357;SDS011;167;47.558;7.602;2023-07-02T00:46:55;2.90;;;2.80;;
357;SDS011;167;47.558;7.602;2023-07-02T00:49:21;3.00;;;2.60;;
357;SDS011;167;47.558;7.602;2023-07-02T00:51:47;2.83;;;2.60;;
357;SDS011;167;47.558;7.602;2023-07-02T00:54:13;3.63;;;3.33;;
357;SDS011;167;47.558;7.602;2023-07-02T00:56:39;3.13;;;2.93;;
357;SDS011;167;47.558;7.602;2023-07-02T00:59:05;3.40;;;3.20;;
357;SDS011;167;47.558;7.602;2023-07-02T01:01:31;2.80;;;2.70;;
357;SDS011;167;47.558;7.602;2023-07-02T01:04:03;3.17;;;2.90;;
357;SDS011;167;47.558;7.602;2023-07-02T01:06:30;2.80;;;2.60;;
357;SDS011;167;47.558;7.602;2023-07-02T01:09:00;2.47;;;2.37;;
357;SDS011;167;47.558;7.602;2023-07-02T01:11:48;3.60;;;3.40;;
357;SDS011;167;47.558;7.602;2023-07-02T01:14:14;5.50;;;3.03;;
357;SDS011;167;47.558;7.602;2023-07-02T01:16:41;3.23;;;3.03;;
357;SDS011;167;47.558;7.602;2023-07-02T01:19:11;3.20;;;2.90;;
357;SDS011;167;47.558;7.602;2023-07-02T01:21:37;3.07;;;2.97;;
357;SDS011;167;47.558;7.602;2023-07-02T01:24:03;2.90;;;2.70;;
357;SDS011;167;47.558;7.602;2023-07-02T01:26:30;3.67;;;3.37;;
357;SDS011;167;47.558;7.602;2023-07-02T01:29:00;4.00;;;3.63;;
357;SDS011;167;47.558;7.602;2023-07-02T01:31:26;3.27;;;3.07;;
357;SDS011;167;47.558;7.602;2023-07-02T01:33:52;3.33;;;3.10;;
357;SDS011;167;47.558;7.602;2023-07-02T01:36:18;3.33;;;3.13;;
357;SDS011;167;47.558;7.602;2023-07-02T01:38:44;4.63;;;3.30;;
357;SDS011;167;47.558;7.602;2023-07-02T01:41:10;3.60;;;3.30;;
357;SDS011;167;47.558;7.602;2023-07-02T01:43:36;4.87;;;3.40;;
357;SDS011;167;47.558;7.602;2023-07-02T01:46:01;2.90;;;2.70;;
357;SDS011;167;47.558;7.602;2023-07-02T01:48:27;2.80;;;2.70;;
357;SDS011;167;47.558;7.602;2023-07-02T01:50:54;3.83;;;3.17;;
357;SDS011;167;47.558;7.602;2023-07-02T01:53:20;4.47;;;3.40;;
357;SDS011;167;47.558;7.602;2023-07-02T01:55:46;3.43;;;3.13;;
357;SDS011;167;47.558;7.602;2023-07-02T01:58:12;3.47;;;3.17;;
357;SDS011;167;47.558;7.602;2023-07-02T02:00:38;3.33;;;3.13;;
357;SDS011;167;47.558;7.602;2023-07-02T02:03:04;3.27;;;2.97;;
357;SDS011;167;47.558;7.602;2023-07-02T02:05:30;3.70;;;3.03;;
357;SDS011;167;47.558;7.602;2023-07-02T02:07:56;3.20;;;2.93;;
357;SDS011;167;47.558;7.602;2023-07-02T02:10:22;3.23;;;3.03;;
357;SDS011;167;47.558;7.602;2023-07-02T02:12:48;2.77;;;2.60;;
357;SDS011;167;47.558;7.602;2023-07-02T02:15:13;3.63;;;3.10;;
357;SDS011;167;47.558;7.602;2023-07-02T02:17:39;3.60;;;3.30;;
357;SDS011;167;47.558;7.602;2023-07-02T02:20:06;3.37;;;3.07;;
357;SDS011;167;47.558;7.602;2023-07-02T02:22:33;3.43;;;3.13;;
357;SDS011;167;47.558;7.602;2023-07-02T02:24:59;4.33;;;2.83;;
357;SDS011;167;47.558;7.602;2023-07-02T02:27:25;3.60;;;3.30;;
357;SDS011;167;47.558;7.602;2023-07-02T02:29:51;3.00;;;2.83;;
357;SDS011;167;47.558;7.602;2023-07-02T02:32:16;3.07;;;2.87;;
357;SDS011;167;47.558;7.602;2023-07-02T02:34:44;3.27;;;2.90;;
357;SDS011;167;47.558;7.602;2023-07-02T02:37:10;3.40;;;3.10;;
357;SDS011;167;47.558;7.602;2023-07-02T02:39:36;3.57;;;3.37;;
357;SDS011;167;47.558;7.602;2023-07-02T02:42:02;3.80;;;3.50;;
357;SDS011;167;47.558;7.602;2023-07-02T02:44:28;3.57;;;3.27;;
357;SDS011;167;47.558;7.602;2023-07-02T02:46:54;3.27;;;3.07;;
357;SDS011;167;47.558;7.602;2023-07-02T02:49:20;4.30;;;4.00;;
357;SDS011;167;47.558;7.602;2023-07-02T02:51:46;5.73;;;3.77;;
357;SDS011;167;47.558;7.602;2023-07-02T02:54:12;4.03;;;3.70;;
357;SDS011;167;47.558;7.602;2023-07-02T02:56:38;4.90;;;4.50;;
357;SDS011;167;47.558;7.602;2023-07-02T02:59:04;4.60;;;4.20;;
357;SDS011;167;47.558;7.602;2023-07-02T03:01:30;5.10;;;4.80;;
357;SDS011;167;47.558;7.602;2023-07-02T03:03:58;4.83;;;4.33;;
357;SDS011;167;47.558;7.602;2023-07-02T03:06:24;5.83;;;5.27;;
357;SDS011;167;47.558;7.602;2023-07-02T03:08:50;4.50;;;4.20;;
357;SDS011;167;47.558;7.602;2023-07-02T03:11:16;5.30;;;4.80;;
357;SDS011;167;47.558;7.602;2023-07-02T03:13:41;5.43;;;5.00;;
357;SDS011;167;47.558;7.602;2023-07-02T03:16:07;5.50;;;5.00;;
357;SDS011;167;47.558;7.602;2023-07-02T03:18:34;6.50;;;4.33;;
357;SDS011;167;47.558;7.602;2023-07-02T03:21:00;4.83;;;4.33;;
357;SDS011;167;47.558;7.602;2023-07-02T03:23:26;4.90;;;4.50;;
357;SDS011;167;47.558;7.602;2023-07-02T03:25:52;6.70;;;5.10;;
357;SDS011;167;47.558;7.602;2023-07-02T03:28:18;5.13;;;4.70;;
357;SDS011;167;47.558;7.602;2023-07-02T03:30:44;4.77;;;4.37;;
357;SDS011;167;47.558;7.602;2023-07-02T03:33:10;5.80;;;5.20;;
357;SDS011;167;47.558;7.602;2023-07-02T03:35:36;4.63;;;4.33;;
357;SDS011;167;47.558;7.602;2023-07-02T03:38:02;5.00;;;4.60;;
357;SDS011;167;47.558;7.602;2023-07-02T03:40:28;4.90;;;4.50;;
357;SDS011;167;47.558;7.602;2023-07-02T03:42:54;4.47;;;4.17;;
357;SDS011;167;47.558;7.602;2023-07-02T03:45:20;4.37;;;4.07;;
357;SDS011;167;47.558;7.602;2023-07-02T03:47:46;5.57;;;5.23;;
357;SDS011;167;47.558;7.602;2023-07-02T03:50:12;4.20;;;3.90;;
357;SDS011;167;47.558;7.602;2023-07-02T03:52:38;4.70;;;4.33;;
357;SDS011;167;47.558;7.602;2023-07-02T03:55:04;7.13;;;5.20;;
357;SDS011;167;47.558;7.602;2023-07-02T03:57:30;5.20;;;4.30;;
357;SDS011;167;47.558;7.602;2023-07-02T03:59:56;5.23;;;4.83;;
357;SDS011;167;47.558;7.602;2023-07-02T04:02:22;5.93;;;4.77;;
357;SDS011;167;47.558;7.602;2023-07-02T04:04:48;5.90;;;4.80;;
357;SDS011;167;47.558;7.602;2023-07-02T04:07:14;6.27;;;5.77;;
357;SDS011;167;47.558;7.602;2023-07-02T04:09:40;6.33;;;5.70;;
357;SDS011;167;47.558;7.602;2023-07-02T04:12:06;6.33;;;5.70;;
357;SDS011;167;47.558;7.602;2023-07-02T04:14:33;5.70;;;5.20;;
357;SDS011;167;47.558;7.602;2023-07-02T04:17:00;6.73;;;6.23;;
357;SDS011;167;47.558;7.602;2023-07-02T04:19:28;6.90;;;6.13;;
357;SDS011;167;47.558;7.602;2023-07-02T04:21:54;6.83;;;6.23;;
357;SDS011;167;47.558;7.602;2023-07-02T04:24:20;7.33;;;6.20;;
357;SDS011;167;47.558;7.602;2023-07-02T04:26:46;12.30;;;7.30;;
357;SDS011;167;47.558;7.602;2023-07-02T04:29:11;7.83;;;7.13;;
357;SDS011;167;47.558;7.602;2023-07-02T04:31:37;9.10;;;8.13;;
357;SDS011;167;47.558;7.602;2023-07-02T04:34:03;9.83;;;7.67;;
357;SDS011;167;47.558;7.602;2023-07-02T04:36:30;9.33;;;8.23;;
357;SDS011;167;47.558;7.602;2023-07-02T04:38:56;9.20;;;8.40;;
357;SDS011;167;47.558;7.602;2023-07-02T04:41:22;9.57;;;8.57;;
357;SDS011;167;47.558;7.602;2023-07-02T04:43:48;11.10;;;8.90;;
357;SDS011;167;47.558;7.602;2023-07-02T04:46:15;10.13;;;9.20;;
357;SDS011;167;47.558;7.602;2023-07-02T04:48:42;9.97;;;9.00;;
357;SDS011;167;47.558;7.602;2023-07-02T04:51:08;11.13;;;9.20;;
357;SDS011;167;47.558;7.602;2023-07-02T04:53:34;10.47;;;9.37;;
357;SDS011;167;47.558;7.602;2023-07-02T04:56:02;11.77;;;10.30;;
357;SDS011;167;47.558;7.602;2023-07-02T04:58:28;10.97;;;9.80;;
357;SDS011;167;47.558;7.602;2023-07-02T05:00:54;11.30;;;9.97;;
357;SDS011;167;47.558;7.602;2023-07-02T05:03:20;10.00;;;9.00;;
357;SDS011;167;47.558;7.602;2023-07-02T05:05:46;10.87;;;9.87;;
357;SDS011;167;47.558;7.602;2023-07-02T05:08:12;12.60;;;9.80;;
357;SDS011;167;47.558;7.602;2023-07-02T05:10:38;13.93;;;9.60;;
357;SDS011;167;47.558;7.602;2023-07-02T05:13:04;10.73;;;9.63;;
357;SDS011;167;47.558;7.602;2023-07-02T05:15:30;11.10;;;9.97;;
357;SDS011;167;47.558;7.602;2023-07-02T05:17:56;11.23;;;10.13;;
357;SDS011;167;47.558;7.602;2023-07-02T05:20:22;11.60;;;10.50;;
357;SDS011;167;47.558;7.602;2023-07-02T05:22:48;11.90;;;10.70;;
357;SDS011;167;47.558;7.602;2023-07-02T05:25:14;13.90;;;10.20;;
357;SDS011;167;47.558;7.602;2023-07-02T05:27:40;12.43;;;11.10;;
357;SDS011;167;47.558;7.602;2023-07-02T05:30:06;16.10;;;11.47;;
357;SDS011;167;47.558;7.602;2023-07-02T05:32:33;13.50;;;11.53;;
357;SDS011;167;47.558;7.602;2023-07-02T05:34:59;13.93;;;10.43;;
357;SDS011;167;47.558;7.602;2023-07-02T05:37:25;14.17;;;12.47;;
357;SDS011;167;47.558;7.602;2023-07-02T05:39:51;12.90;;;11.60;;
357;SDS011;167;47.558;7.602;2023-07-02T05:42:18;13.30;;;11.00;;
357;SDS011;167;47.558;7.602;2023-07-02T05:44:44;13.70;;;11.40;;
357;SDS011;167;47.558;7.602;2023-07-02T05:47:10;13.97;;;12.03;;
357;SDS011;167;47.558;7.602;2023-07-02T05:49:36;14.60;;;11.80;;
357;SDS011;167;47.558;7.602;2023-07-02T05:52:02;14.13;;;11.90;;
357;SDS011;167;47.558;7.602;2023-07-02T05:54:28;14.53;;;12.23;;
357;SDS011;167;47.558;7.602;2023-07-02T05:56:54;12.33;;;11.13;;
357;SDS011;167;47.558;7.602;2023-07-02T05:59:20;13.60;;;12.30;;
357;SDS011;167;47.558;7.602;2023-07-02T06:01:46;15.63;;;13.23;;
357;SDS011;167;47.558;7.602;2023-07-02T06:04:12;16.30;;;13.43;;
357;SDS011;167;47.558;7.602;2023-07-02T06:06:38;15.13;;;13.00;;
357;SDS011;167;47.558;7.602;2023-07-02T06:09:04;15.87;;;12.13;;
357;SDS011;167;47.558;7.602;2023-07-02T06:11:30;13.40;;;12.10;;
357;SDS011;167;47.558;7.602;2023-07-02T06:13:56;13.33;;;12.03;;
357;SDS011;167;47.558;7.602;2023-07-02T06:16:22;15.60;;;12.37;;
357;SDS011;167;47.558;7.602;2023-07-02T06:18:48;13.87;;;12.50;;
357;SDS011;167;47.558;7.602;2023-07-02T06:21:14;13.73;;;12.03;;
357;SDS011;167;47.558;7.602;2023-07-02T06:23:40;14.93;;;13.33;;
357;SDS011;167;47.558;7.602;2023-07-02T06:26:06;14.73;;;12.97;;
357;SDS011;167;47.558;7.602;2023-07-02T06:28:32;14.20;;;12.37;;
357;SDS011;167;47.558;7.602;2023-07-02T06:30:58;14.40;;;13.07;;
357;SDS011;167;47.558;7.602;2023-07-02T06:33:24;14.83;;;12.27;;
357;SDS011;167;47.558;7.602;2023-07-02T06:35:50;12.60;;;11.37;;
357;SDS011;167;47.558;7.602;2023-07-02T06:38:16;18.33;;;13.33;;
357;SDS011;167;47.558;7.602;2023-07-02T06:40:42;13.27;;;11.87;;
357;SDS011;167;47.558;7.602;2023-07-02T06:43:08;14.20;;;12.20;;
357;SDS011;167;47.558;7.602;2023-07-02T06:45:34;14.30;;;12.67;;
357;SDS011;167;47.558;7.602;2023-07-02T06:48:00;16.47;;;13.40;;
357;SDS011;167;47.558;7.602;2023-07-02T06:50:26;14.17;;;12.13;;
357;SDS011;167;47.558;7.602;2023-07-02T06:52:52;15.70;;;12.60;;
357;SDS011;167;47.558;7.602;2023-07-02T06:55:18;15.20;;;11.80;;
357;SDS011;167;47.558;7.602;2023-07-02T06:57:44;14.00;;;12.60;;
357;SDS011;167;47.558;7.602;2023-07-02T07:00:11;13.77;;;12.33;;
357;SDS011;167;47.558;7.602;2023-07-02T07:02:37;14.23;;;11.97;;
357;SDS011;167;47.558;7.602;2023-07-02T07:05:03;13.37;;;12.00;;
357;SDS011;167;47.558;7.602;2023-07-02T07:07:29;14.97;;;13.50;;
357;SDS011;167;47.558;7.602;2023-07-02T07:09:55;17.63;;;13.83;;
357;SDS011;167;47.558;7.602;2023-07-02T07:12:21;13.30;;;12.00;;
357;SDS011;167;47.558;7.602;2023-07-02T07:14:47;17.23;;;13.20;;
357;SDS011;167;47.558;7.602;2023-07-02T07:17:13;14.60;;;13.10;;
357;SDS011;167;47.558;7.602;2023-07-02T07:19:39;22.00;;;14.47;;
357;SDS011;167;47.558;7.602;2023-07-02T07:22:05;16.27;;;14.17;;
357;SDS011;167;47.558;7.602;2023-07-02T07:24:31;16.73;;;15.00;;
357;SDS011;167;47.558;7.602;2023-07-02T07:26:57;18.00;;;15.53;;
357;SDS011;167;47.558;7.602;2023-07-02T07:29:23;16.80;;;14.30;;
357;SDS011;167;47.558;7.602;2023-07-02T07:31:49;15.70;;;14.10;;
357;SDS011;167;47.558;7.602;2023-07-02T07:34:15;15.87;;;14.27;;
357;SDS011;167;47.558;7.602;2023-07-02T07:36:41;19.40;;;16.23;;
357;SDS011;167;47.558;7.602;2023-07-02T07:39:07;16.83;;;14.60;;
357;SDS011;167;47.558;7.602;2023-07-02T07:41:33;15.80;;;14.20;;
357;SDS011;167;47.558;7.602;2023-07-02T07:43:59;17.20;;;15.63;;
357;SDS011;167;47.558;7.602;2023-07-02T07:46:26;17.70;;;14.07;;
357;SDS011;167;47.558;7.602;2023-07-02T07:48:52;17.90;;;16.03;;
357;SDS011;167;47.558;7.602;2023-07-02T07:51:18;19.37;;;15.40;;
357;SDS011;167;47.558;7.602;2023-07-02T07:53:44;15.60;;;13.87;;
357;SDS011;167;47.558;7.602;2023-07-02T07:56:10;16.40;;;14.70;;
357;SDS011;167;47.558;7.602;2023-07-02T07:58:36;15.37;;;13.87;;
357;SDS011;167;47.558;7.602;2023-07-02T08:01:02;14.30;;;12.87;;
357;SDS011;167;47.558;7.602;2023-07-02T08:03:27;16.97;;;15.13;;
357;SDS011;167;47.558;7.602;2023-07-02T08:05:53;17.13;;;15.43;;
357;SDS011;167;47.558;7.602;2023-07-02T08:08:19;19.50;;;16.33;;
357;SDS011;167;47.558;7.602;2023-07-02T08:10:45;16.90;;;15.20;;
357;SDS011;167;47.558;7.602;2023-07-02T08:13:12;17.40;;;15.60;;
357;SDS011;167;47.558;7.602;2023-07-02T08:15:38;17.43;;;15.40;;
357;SDS011;167;47.558;7.602;2023-07-02T08:18:04;17.47;;;15.77;;
357;SDS011;167;47.558;7.602;2023-07-02T08:20:32;19.60;;;15.47;;
357;SDS011;167;47.558;7.602;2023-07-02T08:22:58;18.00;;;16.20;;
357;SDS011;167;47.558;7.602;2023-07-02T08:25:24;16.33;;;14.73;;
357;SDS011;167;47.558;7.602;2023-07-02T08:27:51;17.70;;;16.10;;
357;SDS011;167;47.558;7.602;2023-07-02T08:30:17;15.63;;;13.97;;
357;SDS011;167;47.558;7.602;2023-07-02T08:32:43;17.83;;;16.23;;
357;SDS011;167;47.558;7.602;2023-07-02T08:35:11;17.07;;;15.40;;
357;SDS011;167;47.558;7.602;2023-07-02T08:37:37;16.07;;;14.47;;
357;SDS011;167;47.558;7.602;2023-07-02T08:40:03;16.30;;;14.57;;
357;SDS011;167;47.558;7.602;2023-07-02T08:42:30;15.83;;;14.37;;
357;SDS011;167;47.558;7.602;2023-07-02T08:44:57;15.57;;;14.07;;
357;SDS011;167;47.558;7.602;2023-07-02T08:47:25;15.03;;;13.53;;
357;SDS011;167;47.558;7.602;2023-07-02T08:49:51;16.80;;;15.10;;
357;SDS011;167;47.558;7.602;2023-07-02T08:52:17;14.40;;;13.07;;
357;SDS011;167;47.558;7.602;2023-07-02T08:54:43;16.13;;;14.53;;
357;SDS011;167;47.558;7.602;2023-07-02T08:57:09;15.83;;;14.30;;
357;SDS011;167;47.558;7.602;2023-07-02T08:59:35;15.43;;;13.87;;
357;SDS011;167;47.558;7.602;2023-07-02T09:02:01;15.80;;;14.20;;
357;SDS011;167;47.558;7.602;2023-07-02T09:04:27;15.47;;;14.10;;
357;SDS011;167;47.558;7.602;2023-07-02T09:07:09;16.63;;;14.73;;
357;SDS011;167;47.558;7.602;2023-07-02T09:09:45;16.27;;;14.53;;
357;SDS011;167;47.558;7.602;2023-07-02T09:12:23;15.80;;;14.30;;
357;SDS011;167;47.558;7.602;2023-07-02T09:17:26;15.53;;;14.00;;
357;SDS011;167;47.558;7.602;2023-07-02T09:19:52;15.77;;;14.17;;
357;SDS011;167;47.558;7.602;2023-07-02T09:22:18;16.40;;;14.70;;
357;SDS011;167;47.558;7.602;2023-07-02T09:24:50;16.27;;;14.83;;
357;SDS011;167;47.558;7.602;2023-07-02T09:27:18;14.90;;;13.70;;
357;SDS011;167;47.558;7.602;2023-07-02T09:29:49;15.37;;;13.90;;
357;SDS011;167;47.558;7.602;2023-07-02T09:32:23;14.07;;;12.77;;
357;SDS011;167;47.558;7.602;2023-07-02T09:34:49;16.70;;;15.10;;
357;SDS011;167;47.558;7.602;2023-07-02T09:37:15;14.83;;;13.53;;
357;SDS011;167;47.558;7.602;2023-07-02T09:39:41;14.53;;;13.07;;
357;SDS011;167;47.558;7.602;2023-07-02T09:42:08;14.03;;;12.80;;
357;SDS011;167;47.558;7.602;2023-07-02T09:44:34;15.97;;;14.43;;
357;SDS011;167;47.558;7.602;2023-07-02T09:47:02;16.40;;;14.90;;
357;SDS011;167;47.558;7.602;2023-07-02T09:49:31;14.77;;;13.30;;
357;SDS011;167;47.558;7.602;2023-07-02T09:51:58;15.23;;;13.77;;
357;SDS011;167;47.558;7.602;2023-07-02T09:54:24;14.37;;;13.07;;
357;SDS011;167;47.558;7.602;2023-07-02T09:56:50;14.37;;;12.97;;
357;SDS011;167;47.558;7.602;2023-07-02T09:59:16;14.30;;;13.17;;
357;SDS011;167;47.558;7.602;2023-07-02T10:01:42;14.40;;;12.80;;
357;SDS011;167;47.558;7.602;2023-07-02T10:04:15;14.27;;;12.87;;
357;SDS011;167;47.558;7.602;2023-07-02T10:06:55;15.00;;;13.70;;
357;SDS011;167;47.558;7.602;2023-07-02T10:09:35;14.00;;;12.80;;
357;SDS011;167;47.558;7.602;2023-07-02T10:12:01;15.00;;;13.63;;
357;SDS011;167;47.558;7.602;2023-07-02T10:14:39;14.00;;;11.90;;
357;SDS011;167;47.558;7.602;2023-07-02T10:17:05;13.60;;;12.40;;
357;SDS011;167;47.558;7.602;2023-07-02T10:19:31;13.60;;;12.50;;
357;SDS011;167;47.558;7.602;2023-07-02T10:22:01;15.63;;;14.23;;
357;SDS011;167;47.558;7.602;2023-07-02T10:24:27;13.07;;;11.87;;
357;SDS011;167;47.558;7.602;2023-07-02T10:27:02;14.10;;;12.90;;
357;SDS011;167;47.558;7.602;2023-07-02T10:29:28;12.10;;;11.10;;
357;SDS011;167;47.558;7.602;2023-07-02T10:31:55;14.30;;;12.93;;
357;SDS011;167;47.558;7.602;2023-07-02T10:34:34;13.27;;;12.20;;
357;SDS011;167;47.558;7.602;2023-07-02T10:37:01;14.40;;;12.97;;
357;SDS011;167;47.558;7.602;2023-07-02T10:39:28;12.60;;;11.50;;
357;SDS011;167;47.558;7.602;2023-07-02T10:42:03;13.27;;;12.10;;
357;SDS011;167;47.558;7.602;2023-07-02T10:44:29;12.50;;;11.20;;
357;SDS011;167;47.558;7.602;2023-07-02T10:46:57;12.17;;;11.17;;
357;SDS011;167;47.558;7.602;2023-07-02T10:49:29;12.47;;;11.27;;
357;SDS011;167;47.558;7.602;2023-07-02T10:51:58;11.77;;;10.77;;
357;SDS011;167;47.558;7.602;2023-07-02T10:54:25;12.30;;;11.27;;
357;SDS011;167;47.558;7.602;2023-07-02T10:56:55;11.90;;;10.83;;
357;SDS011;167;47.558;7.602;2023-07-02T10:59:25;11.53;;;10.33;;
357;SDS011;167;47.558;7.602;2023-07-02T11:01:51;10.70;;;9.90;;
357;SDS011;167;47.558;7.602;2023-07-02T11:04:17;10.03;;;9.33;;
357;SDS011;167;47.558;7.602;2023-07-02T11:06:43;8.77;;;8.17;;
357;SDS011;167;47.558;7.602;2023-07-02T11:09:15;9.30;;;8.50;;
357;SDS011;167;47.558;7.602;2023-07-02T11:11:49;8.53;;;7.73;;
357;SDS011;167;47.558;7.602;2023-07-02T11:14:15;9.87;;;9.00;;
357;SDS011;167;47.558;7.602;2023-07-02T11:16:53;8.73;;;8.13;;
357;SDS011;167;47.558;7.602;2023-07-02T11:19:20;8.50;;;7.90;;
357;SDS011;167;47.558;7.602;2023-07-02T11:21:52;8.33;;;7.53;;
357;SDS011;167;47.558;7.602;2023-07-02T11:24:28;7.73;;;7.23;;
357;SDS011;167;47.558;7.602;2023-07-02T11:26:54;7.37;;;6.77;;
357;SDS011;167;47.558;7.602;2023-07-02T11:29:21;6.80;;;6.40;;
357;SDS011;167;47.558;7.602;2023-07-02T11:31:47;7.10;;;6.70;;
357;SDS011;167;47.558;7.602;2023-07-02T11:34:13;7.47;;;6.97;;
357;SDS011;167;47.558;7.602;2023-07-02T11:36:39;7.57;;;7.17;;
357;SDS011;167;47.558;7.602;2023-07-02T11:39:05;7.20;;;6.73;;
357;SDS011;167;47.558;7.602;2023-07-02T11:44:04;6.90;;;6.40;;
357;SDS011;167;47.558;7.602;2023-07-02T11:46:30;7.50;;;7.00;;
357;SDS011;167;47.558;7.602;2023-07-02T11:48:55;7.37;;;6.80;;
357;SDS011;167;47.558;7.602;2023-07-02T11:51:21;7.57;;;6.97;;
357;SDS011;167;47.558;7.602;2023-07-02T11:53:47;7.27;;;6.77;;
357;SDS011;167;47.558;7.602;2023-07-02T11:56:13;7.30;;;6.80;;
357;SDS011;167;47.558;7.602;2023-07-02T11:58:40;6.60;;;6.20;;
357;SDS011;167;47.558;7.602;2023-07-02T12:01:06;6.80;;;6.40;;
357;SDS011;167;47.558;7.602;2023-07-02T12:03:32;7.40;;;6.70;;
357;SDS011;167;47.558;7.602;2023-07-02T12:05:58;6.60;;;6.10;;
357;SDS011;167;47.558;7.602;2023-07-02T12:08:24;7.00;;;6.50;;
357;SDS011;167;47.558;7.602;2023-07-02T12:10:50;6.90;;;6.40;;
357;SDS011;167;47.558;7.602;2023-07-02T12:13:16;7.10;;;6.50;;
357;SDS011;167;47.558;7.602;2023-07-02T12:15:42;7.00;;;6.50;;
357;SDS011;167;47.558;7.602;2023-07-02T12:18:09;7.67;;;7.17;;
357;SDS011;167;47.558;7.602;2023-07-02T12:20:35;6.20;;;5.80;;
357;SDS011;167;47.558;7.602;2023-07-02T12:23:01;6.50;;;6.10;;
357;SDS011;167;47.558;7.602;2023-07-02T12:25:27;6.47;;;6.07;;
357;SDS011;167;47.558;7.602;2023-07-02T12:27:53;6.40;;;6.00;;
357;SDS011;167;47.558;7.602;2023-07-02T12:30:19;7.03;;;6.53;;
357;SDS011;167;47.558;7.602;2023-07-02T12:32:45;6.10;;;5.73;;
357;SDS011;167;47.558;7.602;2023-07-02T12:35:11;7.43;;;6.90;;
357;SDS011;167;47.558;7.602;2023-07-02T12:37:47;7.07;;;6.47;;
357;SDS011;167;47.558;7.602;2023-07-02T12:40:14;6.20;;;5.80;;
357;SDS011;167;47.558;7.602;2023-07-02T12:42:40;7.83;;;7.30;;
357;SDS011;167;47.558;7.602;2023-07-02T12:45:07;8.13;;;7.60;;
357;SDS011;167;47.558;7.602;2023-07-02T12:47:33;7.60;;;7.10;;
357;SDS011;167;47.558;7.602;2023-07-02T12:49:59;8.37;;;7.67;;
357;SDS011;167;47.558;7.602;2023-07-02T12:52:25;8.10;;;7.60;;
357;SDS011;167;47.558;7.602;2023-07-02T12:54:51;7.47;;;6.77;;
357;SDS011;167;47.558;7.602;2023-07-02T12:57:17;8.23;;;7.60;;
357;SDS011;167;47.558;7.602;2023-07-02T12:59:43;8.50;;;7.90;;
357;SDS011;167;47.558;7.602;2023-07-02T13:02:09;8.60;;;7.97;;
357;SDS011;167;47.558;7.602;2023-07-02T13:04:36;8.17;;;7.67;;
357;SDS011;167;47.558;7.602;2023-07-02T13:07:02;8.40;;;7.80;;
357;SDS011;167;47.558;7.602;2023-07-02T13:09:28;7.80;;;7.20;;
357;SDS011;167;47.558;7.602;2023-07-02T13:11:54;7.83;;;7.33;;
357;SDS011;167;47.558;7.602;2023-07-02T13:14:20;6.70;;;6.20;;
357;SDS011;167;47.558;7.602;2023-07-02T13:16:46;7.33;;;6.83;;
357;SDS011;167;47.558;7.602;2023-07-02T13:19:12;6.77;;;6.27;;
357;SDS011;167;47.558;7.602;2023-07-02T13:21:38;7.10;;;6.60;;
357;SDS011;167;47.558;7.602;2023-07-02T13:24:04;7.70;;;7.17;;
357;SDS011;167;47.558;7.602;2023-07-02T13:26:30;7.20;;;6.60;;
357;SDS011;167;47.558;7.602;2023-07-02T13:28:57;8.17;;;7.57;;
357;SDS011;167;47.558;7.602;2023-07-02T13:31:22;9.17;;;8.47;;
357;SDS011;167;47.558;7.602;2023-07-02T13:33:49;9.10;;;8.50;;
357;SDS011;167;47.558;7.602;2023-07-02T13:36:15;9.30;;;8.60;;
357;SDS011;167;47.558;7.602;2023-07-02T13:38:41;9.87;;;9.17;;
357;SDS011;167;47.558;7.602;2023-07-02T13:41:08;8.80;;;8.00;;
357;SDS011;167;47.558;7.602;2023-07-02T13:43:34;8.60;;;7.90;;
357;SDS011;167;47.558;7.602;2023-07-02T13:46:00;8.50;;;7.90;;
357;SDS011;167;47.558;7.602;2023-07-02T13:48:26;8.67;;;7.97;;
357;SDS011;167;47.558;7.602;2023-07-02T13:50:52;9.97;;;9.27;;
357;SDS011;167;47.558;7.602;2023-07-02T13:53:18;8.40;;;7.80;;
357;SDS011;167;47.558;7.602;2023-07-02T13:55:45;9.30;;;8.40;;
357;SDS011;167;47.558;7.602;2023-07-02T13:58:11;9.80;;;9.00;;
357;SDS011;167;47.558;7.602;2023-07-02T14:00:37;8.90;;;8.20;;
357;SDS011;167;47.558;7.602;2023-07-02T14:03:03;9.20;;;8.50;;
357;SDS011;167;47.558;7.602;2023-07-02T14:05:29;9.63;;;8.93;;
357;SDS011;167;47.558;7.602;2023-07-02T14:07:55;9.13;;;8.43;;
357;SDS011;167;47.558;7.602;2023-07-02T14:10:21;9.80;;;9.10;;
357;SDS011;167;47.558;7.602;2023-07-02T14:12:47;9.37;;;8.67;;
357;SDS011;167;47.558;7.602;2023-07-02T14:15:13;9.47;;;8.77;;
357;SDS011;167;47.558;7.602;2023-07-02T14:17:39;10.17;;;9.40;;
357;SDS011;167;47.558;7.602;2023-07-02T14:20:07;9.50;;;8.70;;
357;SDS011;167;47.558;7.602;2023-07-02T14:22:33;9.87;;;9.17;;
357;SDS011;167;47.558;7.602;2023-07-02T14:24:59;9.93;;;9.23;;
357;SDS011;167;47.558;7.602;2023-07-02T14:27:25;10.00;;;9.10;;
357;SDS011;167;47.558;7.602;2023-07-02T14:29:51;9.73;;;9.07;;
357;SDS011;167;47.558;7.602;2023-07-02T14:32:17;11.17;;;10.37;;
357;SDS011;167;47.558;7.602;2023-07-02T14:34:43;11.23;;;10.33;;
357;SDS011;167;47.558;7.602;2023-07-02T14:37:09;9.77;;;9.00;;
357;SDS011;167;47.558;7.602;2023-07-02T14:39:35;10.10;;;9.40;;
357;SDS011;167;47.558;7.602;2023-07-02T14:42:01;10.13;;;9.37;;
357;SDS011;167;47.558;7.602;2023-07-02T14:44:27;10.90;;;9.90;;
357;SDS011;167;47.558;7.602;2023-07-02T14:46:53;10.07;;;9.33;;
357;SDS011;167;47.558;7.602;2023-07-02T14:49:19;10.13;;;9.37;;
357;SDS011;167;47.558;7.602;2023-07-02T14:51:45;10.73;;;9.73;;
357;SDS011;167;47.558;7.602;2023-07-02T14:54:11;11.80;;;10.80;;
357;SDS011;167;47.558;7.602;2023-07-02T14:56:37;12.73;;;11.73;;
357;SDS011;167;47.558;7.602;2023-07-02T14:59:04;11.57;;;9.30;;
357;SDS011;167;47.558;7.602;2023-07-02T15:01:31;10.17;;;9.43;;
357;SDS011;167;47.558;7.602;2023-07-02T15:03:58;10.73;;;9.93;;
357;SDS011;167;47.558;7.602;2023-07-02T15:06:24;10.70;;;9.60;;
357;SDS011;167;47.558;7.602;2023-07-02T15:08:50;10.53;;;9.73;;
357;SDS011;167;47.558;7.602;2023-07-02T15:11:16;11.53;;;10.53;;
357;SDS011;167;47.558;7.602;2023-07-02T15:13:42;9.83;;;9.10;;
357;SDS011;167;47.558;7.602;2023-07-02T15:16:09;11.00;;;10.10;;
357;SDS011;167;47.558;7.602;2023-07-02T15:18:35;9.70;;;8.90;;
357;SDS011;167;47.558;7.602;2023-07-02T15:21:01;10.80;;;10.00;;
357;SDS011;167;47.558;7.602;2023-07-02T15:23:28;11.23;;;10.33;;
357;SDS011;167;47.558;7.602;2023-07-02T15:25:58;11.10;;;10.00;;
357;SDS011;167;47.558;7.602;2023-07-02T15:28:24;10.70;;;10.00;;
357;SDS011;167;47.558;7.602;2023-07-02T15:30:54;10.83;;;9.87;;
357;SDS011;167;47.558;7.602;2023-07-02T15:33:20;11.43;;;10.40;;